createdAt,value
2018-06-17T00:01:26.299Z,98044.00
2018-06-17T00:03:56.467Z,98044.00
2018-06-17T00:06:26.520Z,98049.00
2018-06-17T00:08:56.677Z,98054.00
2018-06-17T00:11:26.778Z,98058.00
2018-06-17T00:13:56.892Z,98064.00
2018-06-17T00:16:27.012Z,98064.00
2018-06-17T00:18:57.094Z,98067.00
2018-06-17T00:21:27.816Z,98068.00
2018-06-17T00:23:57.996Z,98072.00
2018-06-17T00:26:28.065Z,98075.00
2018-06-17T00:28:58.090Z,98081.00
2018-06-17T00:31:28.152Z,98077.00
2018-06-17T00:33:58.862Z,98072.00
2018-06-17T00:36:28.897Z,98074.00
2018-06-17T00:38:59.016Z,98072.00
2018-06-17T00:41:29.190Z,98070.00
2018-06-17T00:43:59.676Z,98068.00
2018-06-17T00:46:29.845Z,98065.00
2018-06-17T00:49:00.079Z,98068.00
2018-06-17T00:51:30.120Z,98066.00
2018-06-17T00:54:00.607Z,98068.00
2018-06-17T00:56:30.671Z,98060.00
2018-06-17T00:59:00.752Z,98069.00
2018-06-17T01:01:30.861Z,98072.00
2018-06-17T01:04:00.994Z,98070.00
2018-06-17T01:06:31.156Z,98073.00
2018-06-17T01:09:01.356Z,98075.00
2018-06-17T01:11:31.486Z,98076.00
2018-06-17T01:14:02.440Z,98078.00
2018-06-17T01:16:32.473Z,98079.00
2018-06-17T01:19:02.567Z,98079.00
2018-06-17T01:21:32.686Z,98073.00
2018-06-17T01:24:03.116Z,98074.00
2018-06-17T01:26:33.661Z,98071.00
2018-06-17T01:29:03.812Z,98075.00
2018-06-17T01:31:33.929Z,98075.00
2018-06-17T01:34:04.736Z,98077.00
2018-06-17T01:36:34.753Z,98078.00
2018-06-17T01:39:07.629Z,98076.00
2018-06-17T01:41:37.679Z,98082.00
2018-06-17T01:44:07.815Z,98078.00
2018-06-17T01:46:38.001Z,98077.00
2018-06-17T01:49:08.076Z,98079.00
2018-06-17T01:51:38.187Z,98076.00
2018-06-17T01:54:08.502Z,98075.00
2018-06-17T01:56:38.601Z,98074.00
2018-06-17T01:59:08.726Z,98075.00
2018-06-17T02:01:38.951Z,98073.00
2018-06-17T02:04:14.233Z,98072.00
2018-06-17T02:06:49.571Z,98079.00
2018-06-17T02:09:24.793Z,98075.00
2018-06-17T02:12:01.221Z,98078.00
2018-06-17T02:14:36.298Z,98080.00
2018-06-17T02:17:06.397Z,98076.00
2018-06-17T02:19:36.448Z,98073.00
2018-06-17T02:22:06.849Z,98077.00
2018-06-17T02:24:37.327Z,98084.00
2018-06-17T02:27:07.737Z,98085.00
2018-06-17T02:29:37.945Z,98083.00
2018-06-17T02:32:08.481Z,98080.00
2018-06-17T02:34:38.879Z,98086.00
2018-06-17T02:37:09.929Z,98084.00
2018-06-17T02:39:40.121Z,98083.00
2018-06-17T02:42:10.553Z,98087.00
2018-06-17T02:44:40.672Z,98090.00
2018-06-17T02:47:15.959Z,98092.00
2018-06-17T02:49:48.543Z,98089.00
2018-06-17T02:52:24.030Z,98088.00
2018-06-17T02:54:54.101Z,98093.00
2018-06-17T02:57:24.307Z,98092.00
2018-06-17T02:59:54.385Z,98093.00
2018-06-17T03:02:24.496Z,98094.00
2018-06-17T03:04:54.549Z,98097.00
2018-06-17T03:07:24.787Z,98098.00
2018-06-17T03:09:54.907Z,98102.00
2018-06-17T03:12:25.026Z,98100.00
2018-06-17T03:14:55.193Z,98104.00
2018-06-17T03:17:25.414Z,98105.00
2018-06-17T03:19:56.249Z,98100.00
2018-06-17T03:22:26.375Z,98103.00
2018-06-17T03:25:01.643Z,98109.00
2018-06-17T03:27:37.056Z,98105.00
2018-06-17T03:30:12.397Z,98101.00
2018-06-17T03:32:47.927Z,98100.00
2018-06-17T03:35:23.541Z,98103.00
2018-06-17T03:37:53.557Z,98101.00
2018-06-17T03:40:23.677Z,98099.00
2018-06-17T03:42:53.899Z,98102.00
2018-06-17T03:45:24.059Z,98105.00
2018-06-17T03:47:54.060Z,98116.00
2018-06-17T03:50:24.127Z,98114.00
2018-06-17T03:52:54.189Z,98112.00
2018-06-17T03:55:24.217Z,98112.00
2018-06-17T03:57:54.313Z,98111.00
2018-06-17T04:00:24.905Z,98111.00
2018-06-17T04:02:55.002Z,98108.00
2018-06-17T04:05:28.045Z,98109.00
2018-06-17T04:07:59.699Z,98117.00
2018-06-17T04:10:29.870Z,98109.00
2018-06-17T04:13:00.046Z,98114.00
2018-06-17T04:15:30.117Z,98112.00
2018-06-17T04:18:00.232Z,98107.00
2018-06-17T04:20:31.642Z,98102.00
2018-06-17T04:23:01.794Z,98107.00
2018-06-17T04:25:32.028Z,98111.00
2018-06-17T04:28:02.052Z,98117.00
2018-06-17T04:30:32.420Z,98118.00
2018-06-17T04:33:02.503Z,98119.00
2018-06-17T04:35:32.610Z,98121.00
2018-06-17T04:38:02.801Z,98126.00
2018-06-17T04:40:32.916Z,98137.00
2018-06-17T04:43:03.112Z,98145.00
2018-06-17T04:45:33.432Z,98151.00
2018-06-17T04:48:03.640Z,98147.00
2018-06-17T04:50:35.369Z,98152.00
2018-06-17T04:53:05.542Z,98145.00
2018-06-17T04:55:35.586Z,98142.00
2018-06-17T04:58:05.692Z,98148.00
2018-06-17T05:00:35.838Z,98153.00
2018-06-17T05:03:05.902Z,98167.00
2018-06-17T05:05:36.061Z,98167.00
2018-06-17T05:08:06.642Z,98173.00
2018-06-17T05:10:36.713Z,98172.00
2018-06-17T05:13:07.444Z,98184.00
2018-06-17T05:15:37.563Z,98184.00
2018-06-17T05:18:07.669Z,98175.00
2018-06-17T05:20:37.748Z,98173.00
2018-06-17T05:23:07.806Z,98168.00
2018-06-17T05:25:38.527Z,98176.00
2018-06-17T05:28:08.586Z,98175.00
2018-06-17T05:30:39.762Z,98182.00
2018-06-17T05:33:10.216Z,98182.00
2018-06-17T05:35:40.256Z,98179.00
2018-06-17T05:38:10.284Z,98174.00
2018-06-17T05:40:40.338Z,98175.00
2018-06-17T05:43:10.515Z,98172.00
2018-06-17T05:45:40.664Z,98173.00
2018-06-17T05:48:10.711Z,98181.00
2018-06-17T05:50:40.843Z,98181.00
2018-06-17T05:53:10.930Z,98174.00
2018-06-17T05:55:41.132Z,98180.00
2018-06-17T05:58:11.120Z,98184.00
2018-06-17T06:00:41.340Z,98180.00
2018-06-17T06:03:11.455Z,98188.00
2018-06-17T06:05:41.971Z,98199.00
2018-06-17T06:08:12.191Z,98202.00
2018-06-17T06:10:42.270Z,98203.00
2018-06-17T06:13:12.436Z,98196.00
2018-06-17T06:15:43.246Z,98195.00
2018-06-17T06:18:13.534Z,98197.00
2018-06-17T06:20:43.814Z,98194.00
2018-06-17T06:23:13.960Z,98201.00
2018-06-17T06:25:44.345Z,98213.00
2018-06-17T06:28:14.998Z,98211.00
2018-06-17T06:30:45.197Z,98215.00
2018-06-17T06:33:15.339Z,98218.00
2018-06-17T06:35:45.513Z,98220.00
2018-06-17T06:38:15.528Z,98219.00
2018-06-17T06:40:45.694Z,98215.00
2018-06-17T06:43:15.829Z,98213.00
2018-06-17T06:45:45.862Z,98221.00
2018-06-17T06:48:16.083Z,98226.00
2018-06-17T06:50:46.122Z,98224.00
2018-06-17T06:53:16.268Z,98229.00
2018-06-17T06:55:46.441Z,98234.00
2018-06-17T06:58:16.658Z,98237.00
2018-06-17T07:00:47.012Z,98236.00
2018-06-17T07:03:33.884Z,98246.00
2018-06-17T07:06:20.880Z,98241.00
2018-06-17T07:09:07.969Z,98239.00
2018-06-17T07:11:38.047Z,98242.00
2018-06-17T07:14:08.912Z,98244.00
2018-06-17T07:16:56.220Z,98244.00
2018-06-17T07:19:26.264Z,98238.00
2018-06-17T07:21:56.430Z,98239.00
2018-06-17T07:24:26.497Z,98249.00
2018-06-17T07:27:13.555Z,98245.00
2018-06-17T07:29:47.185Z,98241.00
2018-06-17T07:32:17.266Z,98237.00
2018-06-17T07:34:47.379Z,98243.00
2018-06-17T07:37:17.597Z,98250.00
2018-06-17T07:40:52.400Z,98248.00
2018-06-17T07:43:22.711Z,98254.00
2018-06-17T07:45:53.169Z,98259.00
2018-06-17T07:50:17.887Z,98262.00
2018-06-17T07:53:05.040Z,98272.00
2018-06-17T07:55:35.176Z,98282.00
2018-06-17T07:58:05.387Z,98284.00
2018-06-17T08:00:36.373Z,98285.00
2018-06-17T08:03:06.667Z,98286.00
2018-06-17T08:05:36.755Z,98287.00
2018-06-17T08:08:06.895Z,98285.00
2018-06-17T08:10:36.984Z,98290.00
2018-06-17T08:13:07.147Z,98287.00
2018-06-17T08:15:37.457Z,98286.00
2018-06-17T08:18:07.671Z,98289.00
2018-06-17T08:20:37.905Z,98283.00
2018-06-17T08:23:08.163Z,98284.00
2018-06-17T08:25:38.911Z,98297.00
2018-06-17T08:28:09.663Z,98295.00
2018-06-17T08:30:39.990Z,98293.00
2018-06-17T08:33:10.107Z,98294.00
2018-06-17T08:35:40.231Z,98296.00
2018-06-17T08:38:10.293Z,98290.00
2018-06-17T08:40:40.874Z,98298.00
2018-06-17T08:43:10.591Z,98302.00
2018-06-17T08:45:40.611Z,98295.00
2018-06-17T08:48:10.755Z,98294.00
2018-06-17T08:50:40.848Z,98301.00
2018-06-17T08:53:11.036Z,98303.00
2018-06-17T08:55:41.420Z,98304.00
2018-06-17T08:58:11.421Z,98305.00
2018-06-17T09:00:41.546Z,98307.00
2018-06-17T09:03:11.580Z,98301.00
2018-06-17T09:05:41.821Z,98310.00
2018-06-17T09:08:11.967Z,98308.00
2018-06-17T09:10:42.651Z,98310.00
2018-06-17T09:13:13.144Z,98312.00
2018-06-17T09:15:43.353Z,98305.00
2018-06-17T09:18:13.408Z,98308.00
2018-06-17T09:20:43.680Z,98309.00
2018-06-17T09:23:13.752Z,98308.00
2018-06-17T09:25:44.947Z,98306.00
2018-06-17T09:28:14.994Z,98304.00
2018-06-17T09:30:45.186Z,98315.00
2018-06-17T09:33:15.325Z,98307.00
2018-06-17T09:35:45.917Z,98308.00
2018-06-17T09:38:16.034Z,98304.00
2018-06-17T09:40:49.204Z,98304.00
2018-06-17T09:43:19.454Z,98303.00
2018-06-17T09:45:49.497Z,98309.00
2018-06-17T09:48:19.642Z,98314.00
2018-06-17T09:50:49.718Z,98315.00
2018-06-17T09:53:19.816Z,98314.00
2018-06-17T09:55:50.584Z,98306.00
2018-06-17T09:58:21.189Z,98308.00
2018-06-17T10:00:51.194Z,98311.00
2018-06-17T10:03:21.216Z,98314.00
2018-06-17T10:05:51.418Z,98311.00
2018-06-17T10:08:21.572Z,98312.00
2018-06-17T10:10:56.628Z,98308.00
2018-06-17T10:13:29.032Z,98316.00
2018-06-17T10:15:59.206Z,98310.00
2018-06-17T10:18:30.354Z,98315.00
2018-06-17T10:21:00.455Z,98316.00
2018-06-17T10:23:30.523Z,98320.00
2018-06-17T10:26:01.480Z,98316.00
2018-06-17T10:28:32.671Z,98316.00
2018-06-17T10:31:04.327Z,98311.00
2018-06-17T10:33:36.412Z,98323.00
2018-06-17T10:36:06.890Z,98322.00
2018-06-17T10:38:37.163Z,98327.00
2018-06-17T10:41:07.294Z,98331.00
2018-06-17T10:43:37.420Z,98326.00
2018-06-17T10:46:07.559Z,98326.00
2018-06-17T10:48:37.309Z,98325.00
2018-06-17T10:51:07.468Z,98335.00
2018-06-17T10:53:37.655Z,98333.00
2018-06-17T10:56:07.851Z,98328.00
2018-06-17T10:58:37.775Z,98331.00
2018-06-17T11:01:07.993Z,98333.00
2018-06-17T11:03:38.695Z,98332.00
2018-06-17T11:06:08.880Z,98335.00
2018-06-17T11:08:38.932Z,98334.00
2018-06-17T11:11:09.260Z,98333.00
2018-06-17T11:13:39.394Z,98338.00
2018-06-17T11:16:09.437Z,98333.00
2018-06-17T11:18:39.818Z,98336.00
2018-06-17T11:21:09.981Z,98333.00
2018-06-17T11:23:40.122Z,98334.00
2018-06-17T11:26:10.220Z,98337.00
2018-06-17T11:28:40.309Z,98331.00
2018-06-17T11:31:10.947Z,98332.00
2018-06-17T11:33:41.001Z,98330.00
2018-06-17T11:36:11.296Z,98330.00
2018-06-17T11:38:41.526Z,98336.00
2018-06-17T11:41:11.625Z,98338.00
2018-06-17T11:43:41.785Z,98331.00
2018-06-17T11:46:11.903Z,98336.00
2018-06-17T11:48:42.007Z,98324.00
2018-06-17T11:51:12.453Z,98330.00
2018-06-17T11:53:42.657Z,98336.00
2018-06-17T11:56:12.811Z,98330.00
2018-06-17T11:58:43.077Z,98326.00
2018-06-17T12:01:13.172Z,98328.00
2018-06-17T12:03:43.584Z,98317.00
2018-06-17T12:06:13.923Z,98320.00
2018-06-17T12:08:44.045Z,98317.00
2018-06-17T12:11:14.133Z,98309.00
2018-06-17T12:13:43.951Z,98311.00
2018-06-17T12:16:13.995Z,98303.00
2018-06-17T12:18:44.453Z,98308.00
2018-06-17T12:21:14.663Z,98310.00
2018-06-17T12:23:44.819Z,98306.00
2018-06-17T12:26:15.377Z,98306.00
2018-06-17T12:28:45.456Z,98305.00
2018-06-17T12:31:15.777Z,98311.00
2018-06-17T12:33:46.283Z,98309.00
2018-06-17T12:36:16.509Z,98304.00
2018-06-17T12:38:46.992Z,98302.00
2018-06-17T12:41:17.053Z,98295.00
2018-06-17T12:43:47.648Z,98297.00
2018-06-17T12:46:17.774Z,98290.00
2018-06-17T12:48:47.897Z,98291.00
2018-06-17T12:51:18.129Z,98298.00
2018-06-17T12:53:48.695Z,98289.00
2018-06-17T12:56:18.805Z,98287.00
2018-06-17T12:58:48.915Z,98283.00
2018-06-17T13:01:19.141Z,98280.00
2018-06-17T13:03:49.767Z,98283.00
2018-06-17T13:06:19.825Z,98266.00
2018-06-17T13:08:49.861Z,98263.00
2018-06-17T13:11:20.031Z,98254.00
2018-06-17T13:13:50.088Z,98255.00
2018-06-17T13:16:20.302Z,98256.00
2018-06-17T13:18:50.485Z,98253.00
2018-06-17T13:21:20.618Z,98252.00
2018-06-17T13:23:51.701Z,98252.00
2018-06-17T13:26:21.892Z,98247.00
2018-06-17T13:28:51.958Z,98243.00
2018-06-17T13:31:22.082Z,98246.00
2018-06-17T13:33:52.225Z,98240.00
2018-06-17T13:36:22.436Z,98246.00
2018-06-17T13:38:52.632Z,98245.00
2018-06-17T13:41:22.852Z,98241.00
2018-06-17T13:43:53.310Z,98235.00
2018-06-17T13:46:23.867Z,98239.00
2018-06-17T13:48:54.090Z,98244.00
2018-06-17T13:51:24.232Z,98232.00
2018-06-17T13:53:54.456Z,98227.00
2018-06-17T13:56:25.168Z,98229.00
2018-06-17T13:58:55.228Z,98229.00
2018-06-17T14:01:26.527Z,98235.00
2018-06-17T14:03:57.047Z,98234.00
2018-06-17T14:06:27.158Z,98232.00
2018-06-17T14:08:57.135Z,98230.00
2018-06-17T14:11:31.451Z,98228.00
2018-06-17T14:14:02.715Z,98226.00
2018-06-17T14:16:32.858Z,98226.00
2018-06-17T14:19:02.928Z,98227.00
2018-06-17T14:21:33.081Z,98233.00
2018-06-17T14:24:03.086Z,98233.00
2018-06-17T14:26:33.128Z,98240.00
2018-06-17T14:29:03.188Z,98228.00
2018-06-17T14:31:33.236Z,98216.00
2018-06-17T14:34:03.304Z,98224.00
2018-06-17T14:36:33.348Z,98228.00
2018-06-17T14:39:04.376Z,98230.00
2018-06-17T14:41:34.509Z,98230.00
2018-06-17T14:44:09.908Z,98227.00
2018-06-17T14:46:45.868Z,98226.00
2018-06-17T14:49:21.148Z,98223.00
2018-06-17T14:51:51.845Z,98223.00
2018-06-17T14:54:21.936Z,98219.00
2018-06-17T14:56:52.013Z,98219.00
2018-06-17T14:59:22.235Z,98220.00
2018-06-17T15:01:52.292Z,98219.00
2018-06-17T15:04:22.413Z,98215.00
2018-06-17T15:06:52.439Z,98221.00
2018-06-17T15:09:22.464Z,98224.00
2018-06-17T15:11:52.564Z,98227.00
2018-06-17T15:14:22.960Z,98227.00
2018-06-17T15:16:53.121Z,98217.00
2018-06-17T15:19:23.230Z,98217.00
2018-06-17T15:21:53.257Z,98218.00
2018-06-17T15:24:23.813Z,98224.00
2018-06-17T15:26:53.954Z,98229.00
2018-06-17T15:29:24.047Z,98234.00
2018-06-17T15:33:01.814Z,98233.00
2018-06-17T15:35:37.207Z,98236.00
2018-06-17T15:38:12.388Z,98236.00
2018-06-17T15:40:47.500Z,98241.00
2018-06-17T15:43:17.461Z,98229.00
2018-06-17T15:45:47.599Z,98234.00
2018-06-17T15:48:18.415Z,98242.00
2018-06-17T15:50:49.507Z,98239.00
2018-06-17T15:53:19.866Z,98241.00
2018-06-17T15:55:49.974Z,98231.00
2018-06-17T15:58:20.069Z,98231.00
2018-06-17T16:00:50.263Z,98231.00
2018-06-17T16:03:20.467Z,98231.00
2018-06-17T16:05:51.113Z,98223.00
2018-06-17T16:08:21.241Z,98230.00
2018-06-17T16:10:51.523Z,98238.00
2018-06-17T16:13:26.771Z,98229.00
2018-06-17T16:16:02.120Z,98230.00
2018-06-17T16:18:37.333Z,98240.00
2018-06-17T16:21:08.589Z,98225.00
2018-06-17T16:23:38.769Z,98228.00
2018-06-17T16:26:08.852Z,98235.00
2018-06-17T16:28:39.647Z,98231.00
2018-06-17T16:31:09.975Z,98237.00
2018-06-17T16:33:40.536Z,98228.00
2018-06-17T16:36:10.609Z,98229.00
2018-06-17T16:38:40.701Z,98227.00
2018-06-17T16:41:10.851Z,98227.00
2018-06-17T16:43:41.082Z,98227.00
2018-06-17T16:46:11.287Z,98230.00
2018-06-17T16:48:41.373Z,98234.00
2018-06-17T16:52:16.415Z,98232.00
2018-06-17T16:54:51.817Z,98234.00
2018-06-17T16:57:27.255Z,98234.00
2018-06-17T17:00:00.552Z,98236.00
2018-06-17T17:02:30.617Z,98237.00
2018-06-17T17:05:00.779Z,98241.00
2018-06-17T17:07:31.048Z,98249.00
2018-06-17T17:10:01.284Z,98239.00
2018-06-17T17:12:32.657Z,98252.00
2018-06-17T17:15:02.829Z,98258.00
2018-06-17T17:17:33.332Z,98256.00
2018-06-17T17:20:03.582Z,98255.00
2018-06-17T17:22:34.527Z,98260.00
2018-06-17T17:25:04.895Z,98256.00
2018-06-17T17:27:35.095Z,98261.00
2018-06-17T17:30:05.564Z,98258.00
2018-06-17T17:32:40.982Z,98260.00
2018-06-17T17:35:16.272Z,98265.00
2018-06-17T17:37:52.375Z,98276.00
2018-06-17T17:40:27.644Z,98279.00
2018-06-17T17:42:57.714Z,98276.00
2018-06-17T17:45:32.002Z,98282.00
2018-06-17T17:48:02.173Z,98274.00
2018-06-17T17:50:32.251Z,98273.00
2018-06-17T17:53:02.358Z,98277.00
2018-06-17T17:55:32.582Z,98284.00
2018-06-17T17:58:03.078Z,98284.00
2018-06-17T18:00:35.398Z,98290.00
2018-06-17T18:03:05.520Z,98294.00
2018-06-17T18:05:35.777Z,98293.00
2018-06-17T18:08:05.893Z,98294.00
2018-06-17T18:10:36.770Z,98296.00
2018-06-17T18:13:06.941Z,98296.00
2018-06-17T18:15:37.728Z,98292.00
2018-06-17T18:18:07.892Z,98292.00
2018-06-17T18:20:38.169Z,98290.00
2018-06-17T18:23:08.846Z,98291.00
2018-06-17T18:25:44.346Z,98292.00
2018-06-17T18:28:19.458Z,98292.00
2018-06-17T18:30:56.659Z,98294.00
2018-06-17T18:33:32.012Z,98295.00
2018-06-17T18:36:07.577Z,98302.00
2018-06-17T18:38:39.414Z,98304.00
2018-06-17T18:41:10.262Z,98310.00
2018-06-17T18:43:41.743Z,98315.00
2018-06-17T18:46:12.906Z,98316.00
2018-06-17T18:48:43.058Z,98315.00
2018-06-17T18:51:13.145Z,98319.00
2018-06-17T18:53:43.397Z,98313.00
2018-06-17T18:56:13.577Z,98319.00
2018-06-17T18:58:43.647Z,98327.00
2018-06-17T19:01:13.881Z,98328.00
2018-06-17T19:03:44.295Z,98332.00
2018-06-17T19:06:14.565Z,98334.00
2018-06-17T19:08:49.995Z,98337.00
2018-06-17T19:11:25.450Z,98336.00
2018-06-17T19:14:01.579Z,98347.00
2018-06-17T19:16:37.080Z,98348.00
2018-06-17T19:19:07.275Z,98351.00
2018-06-17T19:21:37.402Z,98358.00
2018-06-17T19:24:08.485Z,98358.00
2018-06-17T19:26:38.761Z,98365.00
2018-06-17T19:29:08.987Z,98373.00
2018-06-17T19:31:39.870Z,98371.00
2018-06-17T19:34:10.090Z,98378.00
2018-06-17T19:36:40.726Z,98373.00
2018-06-17T19:39:11.939Z,98380.00
2018-06-17T19:41:42.169Z,98383.00
2018-06-17T19:44:13.888Z,98387.00
2018-06-17T19:46:44.102Z,98391.00
2018-06-17T19:49:14.319Z,98391.00
2018-06-17T19:51:49.591Z,98392.00
2018-06-17T19:54:24.989Z,98395.00
2018-06-17T19:57:00.222Z,98398.00
2018-06-17T19:59:36.405Z,98399.00
2018-06-17T20:02:06.629Z,98405.00
2018-06-17T20:04:36.792Z,98405.00
2018-06-17T20:07:07.138Z,98409.00
2018-06-17T20:09:37.204Z,98417.00
2018-06-17T20:12:07.373Z,98420.00
2018-06-17T20:14:37.383Z,98415.00
2018-06-17T20:17:07.581Z,98418.00
2018-06-17T20:19:37.844Z,98416.00
2018-06-17T20:22:07.992Z,98413.00
2018-06-17T20:24:37.989Z,98412.00
2018-06-17T20:27:08.198Z,98414.00
2018-06-17T20:29:38.460Z,98407.00
2018-06-17T20:32:13.827Z,98400.00
2018-06-17T20:34:49.240Z,98401.00
2018-06-17T20:37:24.523Z,98403.00
2018-06-17T20:39:59.965Z,98401.00
2018-06-17T20:42:35.145Z,98408.00
2018-06-17T20:45:05.579Z,98414.00
2018-06-17T20:47:35.611Z,98417.00
2018-06-17T20:50:05.879Z,98417.00
2018-06-17T20:52:36.042Z,98426.00
2018-06-17T20:55:06.517Z,98420.00
2018-06-17T20:57:36.623Z,98424.00
2018-06-17T21:00:07.319Z,98429.00
2018-06-17T21:02:37.488Z,98426.00
2018-06-17T21:05:07.591Z,98431.00
2018-06-17T21:07:37.636Z,98438.00
2018-06-17T21:10:08.154Z,98439.00
2018-06-17T21:12:38.297Z,98443.00
2018-06-17T21:15:13.706Z,98440.00
2018-06-17T21:17:43.870Z,98442.00
2018-06-17T21:20:19.335Z,98446.00
2018-06-17T21:22:54.844Z,98449.00
2018-06-17T21:25:31.300Z,98454.00
2018-06-17T21:28:02.638Z,98454.00
2018-06-17T21:30:32.794Z,98456.00
2018-06-17T21:33:02.912Z,98460.00
2018-06-17T21:35:33.106Z,98454.00
2018-06-17T21:38:03.202Z,98461.00
2018-06-17T21:40:33.300Z,98471.00
2018-06-17T21:43:03.696Z,98480.00
2018-06-17T21:45:33.734Z,98482.00
2018-06-17T21:48:03.962Z,98483.00
2018-06-17T21:50:34.540Z,98481.00
2018-06-17T21:53:04.798Z,98487.00
2018-06-17T21:55:35.809Z,98487.00
2018-06-17T21:58:05.946Z,98481.00
2018-06-17T22:00:36.062Z,98483.00
2018-06-17T22:03:06.314Z,98483.00
2018-06-17T22:05:36.381Z,98483.00
2018-06-17T22:08:11.826Z,98481.00
2018-06-17T22:10:47.131Z,98482.00
2018-06-17T22:13:17.212Z,98477.00
2018-06-17T22:16:56.270Z,98474.00
2018-06-17T22:19:26.411Z,98475.00
2018-06-17T22:21:56.609Z,98481.00
2018-06-17T22:24:26.720Z,98483.00
2018-06-17T22:26:56.774Z,98488.00
2018-06-17T22:29:26.940Z,98490.00
2018-06-17T22:31:57.157Z,98495.00
2018-06-17T22:34:27.325Z,98500.00
2018-06-17T22:36:58.004Z,98503.00
2018-06-17T22:39:28.178Z,98504.00
2018-06-17T22:41:58.344Z,98504.00
2018-06-17T22:44:28.425Z,98505.00
2018-06-17T22:46:59.040Z,98509.00
2018-06-17T22:49:29.186Z,98509.00
2018-06-17T22:51:59.769Z,98513.00
2018-06-17T22:54:51.925Z,98515.00
2018-06-17T22:57:27.286Z,98519.00
2018-06-17T23:00:02.733Z,98513.00
2018-06-17T23:02:38.087Z,98514.00
2018-06-17T23:06:16.983Z,98515.00
2018-06-17T23:08:52.155Z,98523.00
2018-06-17T23:11:22.247Z,98520.00
2018-06-17T23:13:53.069Z,98521.00
2018-06-17T23:16:23.681Z,98514.00
2018-06-17T23:18:54.276Z,98513.00
2018-06-17T23:21:24.345Z,98519.00
2018-06-17T23:23:54.429Z,98518.00
2018-06-17T23:26:24.595Z,98523.00
2018-06-17T23:28:54.648Z,98526.00
2018-06-17T23:31:25.639Z,98529.00
2018-06-17T23:33:56.947Z,98529.00
2018-06-17T23:36:27.049Z,98532.00
2018-06-17T23:38:57.086Z,98532.00
2018-06-17T23:41:27.213Z,98530.00
2018-06-17T23:43:58.343Z,98539.00
2018-06-17T23:46:34.327Z,98542.00
2018-06-17T23:49:09.631Z,98533.00
2018-06-17T23:51:45.035Z,98535.00
2018-06-17T23:54:20.469Z,98545.00
2018-06-17T23:56:50.539Z,98553.00
2018-06-17T23:59:20.629Z,98554.00
